New Baden, Illinois
Current Conditions -  °F | °C
As of 1:58 PM on Thursday 29 Jan 2015 (Local Time) from KBLV Reporting Station
Overcast Overcast  
Wind Chill: 34°   Ceiling: 2700
Heat Index: 41°   Visibility: 10mi
Dew Point: 32°   Wind: 15mph
Humidity: 69%   Direction: 300°WNW
Pressure: 30.16"   Gusts: 22mph
Location:  38.54°N, 89.7°W
Report Text: KBLV 291958Z AUTO 30013G19KT 10SM OVC027 05/00 A3016 RMK AO2 SLP218 T00521001
Loading
Personal Weather Stations






























Interactive Weather Map New forecast layout! Learn more

10-Day Weather Forecast

Advertisements
Track Severe Weather on mobile